sensor_id;sensor_type;location;lat;lon;timestamp;P1;durP1;ratioP1;P2;durP2;ratioP2
17614;SDS011;8926;49.720;6.576;2023-07-09T00:00:17;2.00;;;1.90;;
17614;SDS011;8926;49.720;6.576;2023-07-09T00:02:44;2.60;;;2.40;;
17614;SDS011;8926;49.720;6.576;2023-07-09T00:05:13;2.63;;;2.43;;
17614;SDS011;8926;49.720;6.576;2023-07-09T00:07:42;2.47;;;2.27;;
17614;SDS011;8926;49.720;6.576;2023-07-09T00:10:19;3.00;;;2.80;;
17614;SDS011;8926;49.720;6.576;2023-07-09T00:12:46;2.67;;;2.47;;
17614;SDS011;8926;49.720;6.576;2023-07-09T00:15:12;2.67;;;2.53;;
17614;SDS011;8926;49.720;6.576;2023-07-09T00:17:41;2.60;;;2.40;;
17614;SDS011;8926;49.720;6.576;2023-07-09T00:20:10;2.83;;;2.63;;
17614;SDS011;8926;49.720;6.576;2023-07-09T00:22:39;3.07;;;2.87;;
17614;SDS011;8926;49.720;6.576;2023-07-09T00:25:05;3.07;;;2.60;;
17614;SDS011;8926;49.720;6.576;2023-07-09T00:27:32;3.13;;;2.93;;
17614;SDS011;8926;49.720;6.576;2023-07-09T00:29:58;2.30;;;2.20;;
17614;SDS011;8926;49.720;6.576;2023-07-09T00:32:23;2.20;;;2.10;;
17614;SDS011;8926;49.720;6.576;2023-07-09T00:34:50;2.67;;;2.47;;
17614;SDS011;8926;49.720;6.576;2023-07-09T00:37:19;2.40;;;2.30;;
17614;SDS011;8926;49.720;6.576;2023-07-09T00:39:46;2.07;;;1.97;;
17614;SDS011;8926;49.720;6.576;2023-07-09T00:42:15;2.70;;;2.50;;
17614;SDS011;8926;49.720;6.576;2023-07-09T00:44:44;2.30;;;2.20;;
17614;SDS011;8926;49.720;6.576;2023-07-09T00:49:49;2.30;;;2.20;;
17614;SDS011;8926;49.720;6.576;2023-07-09T00:54:53;2.73;;;2.53;;
17614;SDS011;8926;49.720;6.576;2023-07-09T00:57:21;2.30;;;2.13;;
17614;SDS011;8926;49.720;6.576;2023-07-09T00:59:54;2.60;;;2.40;;
17614;SDS011;8926;49.720;6.576;2023-07-09T01:02:25;2.13;;;2.03;;
17614;SDS011;8926;49.720;6.576;2023-07-09T01:04:54;2.30;;;2.20;;
17614;SDS011;8926;49.720;6.576;2023-07-09T01:07:25;2.67;;;2.47;;
17614;SDS011;8926;49.720;6.576;2023-07-09T01:09:52;2.90;;;2.70;;
17614;SDS011;8926;49.720;6.576;2023-07-09T01:12:18;2.80;;;2.60;;
17614;SDS011;8926;49.720;6.576;2023-07-09T01:14:45;2.80;;;2.60;;
17614;SDS011;8926;49.720;6.576;2023-07-09T01:17:13;2.60;;;2.40;;
17614;SDS011;8926;49.720;6.576;2023-07-09T01:19:40;2.97;;;2.77;;
17614;SDS011;8926;49.720;6.576;2023-07-09T01:22:08;3.13;;;2.73;;
17614;SDS011;8926;49.720;6.576;2023-07-09T01:24:49;2.80;;;2.67;;
17614;SDS011;8926;49.720;6.576;2023-07-09T01:27:24;2.77;;;2.67;;
17614;SDS011;8926;49.720;6.576;2023-07-09T01:29:53;3.00;;;2.80;;
17614;SDS011;8926;49.720;6.576;2023-07-09T01:32:20;2.40;;;2.30;;
17614;SDS011;8926;49.720;6.576;2023-07-09T01:34:47;2.80;;;2.60;;
17614;SDS011;8926;49.720;6.576;2023-07-09T01:37:17;2.60;;;2.50;;
17614;SDS011;8926;49.720;6.576;2023-07-09T01:39:43;2.80;;;2.60;;
17614;SDS011;8926;49.720;6.576;2023-07-09T01:42:09;2.60;;;2.40;;
17614;SDS011;8926;49.720;6.576;2023-07-09T01:44:35;2.63;;;2.43;;
17614;SDS011;8926;49.720;6.576;2023-07-09T01:47:03;2.70;;;2.50;;
17614;SDS011;8926;49.720;6.576;2023-07-09T01:49:29;2.90;;;2.70;;
17614;SDS011;8926;49.720;6.576;2023-07-09T01:51:56;2.90;;;2.70;;
17614;SDS011;8926;49.720;6.576;2023-07-09T01:54:22;2.40;;;2.30;;
17614;SDS011;8926;49.720;6.576;2023-07-09T01:56:48;3.13;;;2.93;;
17614;SDS011;8926;49.720;6.576;2023-07-09T01:59:14;2.97;;;2.67;;
17614;SDS011;8926;49.720;6.576;2023-07-09T02:01:39;2.70;;;2.57;;
17614;SDS011;8926;49.720;6.576;2023-07-09T02:04:06;2.87;;;2.67;;
17614;SDS011;8926;49.720;6.576;2023-07-09T02:06:31;2.83;;;2.63;;
17614;SDS011;8926;49.720;6.576;2023-07-09T02:08:57;2.70;;;2.60;;
17614;SDS011;8926;49.720;6.576;2023-07-09T02:11:23;2.27;;;2.17;;
17614;SDS011;8926;49.720;6.576;2023-07-09T02:13:49;2.50;;;2.40;;
17614;SDS011;8926;49.720;6.576;2023-07-09T02:16:14;2.87;;;2.67;;
17614;SDS011;8926;49.720;6.576;2023-07-09T02:18:40;2.60;;;2.40;;
17614;SDS011;8926;49.720;6.576;2023-07-09T02:21:05;3.00;;;2.80;;
17614;SDS011;8926;49.720;6.576;2023-07-09T02:23:30;3.07;;;2.87;;
17614;SDS011;8926;49.720;6.576;2023-07-09T02:25:56;2.57;;;2.47;;
17614;SDS011;8926;49.720;6.576;2023-07-09T02:28:21;2.80;;;2.63;;
17614;SDS011;8926;49.720;6.576;2023-07-09T02:30:46;2.83;;;2.63;;
17614;SDS011;8926;49.720;6.576;2023-07-09T02:33:12;2.80;;;2.70;;
17614;SDS011;8926;49.720;6.576;2023-07-09T02:35:37;2.70;;;2.50;;
17614;SDS011;8926;49.720;6.576;2023-07-09T02:38:03;3.10;;;2.90;;
17614;SDS011;8926;49.720;6.576;2023-07-09T02:40:29;3.13;;;2.93;;
17614;SDS011;8926;49.720;6.576;2023-07-09T02:42:54;3.70;;;3.40;;
17614;SDS011;8926;49.720;6.576;2023-07-09T02:45:19;2.70;;;2.50;;
17614;SDS011;8926;49.720;6.576;2023-07-09T02:47:45;2.97;;;2.77;;
17614;SDS011;8926;49.720;6.576;2023-07-09T02:50:11;2.57;;;2.47;;
17614;SDS011;8926;49.720;6.576;2023-07-09T02:52:36;2.70;;;2.60;;
17614;SDS011;8926;49.720;6.576;2023-07-09T02:55:01;3.07;;;2.87;;
17614;SDS011;8926;49.720;6.576;2023-07-09T02:57:27;2.90;;;2.70;;
17614;SDS011;8926;49.720;6.576;2023-07-09T02:59:52;2.70;;;2.50;;
17614;SDS011;8926;49.720;6.576;2023-07-09T03:02:17;2.50;;;2.40;;
17614;SDS011;8926;49.720;6.576;2023-07-09T03:04:42;2.70;;;2.60;;
17614;SDS011;8926;49.720;6.576;2023-07-09T03:07:08;3.27;;;3.07;;
17614;SDS011;8926;49.720;6.576;2023-07-09T03:09:33;2.90;;;2.70;;
17614;SDS011;8926;49.720;6.576;2023-07-09T03:11:58;2.80;;;2.60;;
17614;SDS011;8926;49.720;6.576;2023-07-09T03:14:24;3.07;;;2.87;;
17614;SDS011;8926;49.720;6.576;2023-07-09T03:16:49;2.73;;;2.57;;
17614;SDS011;8926;49.720;6.576;2023-07-09T03:19:14;3.10;;;2.90;;
17614;SDS011;8926;49.720;6.576;2023-07-09T03:21:40;3.43;;;3.13;;
17614;SDS011;8926;49.720;6.576;2023-07-09T03:24:05;3.00;;;2.80;;
17614;SDS011;8926;49.720;6.576;2023-07-09T03:26:31;2.53;;;2.33;;
17614;SDS011;8926;49.720;6.576;2023-07-09T03:28:57;3.00;;;2.80;;
17614;SDS011;8926;49.720;6.576;2023-07-09T03:31:22;3.10;;;2.90;;
17614;SDS011;8926;49.720;6.576;2023-07-09T03:33:48;2.97;;;2.77;;
17614;SDS011;8926;49.720;6.576;2023-07-09T03:36:15;3.10;;;2.90;;
17614;SDS011;8926;49.720;6.576;2023-07-09T03:38:41;3.30;;;3.10;;
17614;SDS011;8926;49.720;6.576;2023-07-09T03:41:06;2.70;;;2.50;;
17614;SDS011;8926;49.720;6.576;2023-07-09T03:43:32;2.93;;;2.73;;
17614;SDS011;8926;49.720;6.576;2023-07-09T03:45:57;2.70;;;2.50;;
17614;SDS011;8926;49.720;6.576;2023-07-09T03:48:23;2.50;;;2.40;;
17614;SDS011;8926;49.720;6.576;2023-07-09T03:50:48;3.10;;;2.90;;
17614;SDS011;8926;49.720;6.576;2023-07-09T03:53:14;2.80;;;2.60;;
17614;SDS011;8926;49.720;6.576;2023-07-09T03:55:40;3.13;;;2.93;;
17614;SDS011;8926;49.720;6.576;2023-07-09T03:58:06;3.00;;;2.80;;
17614;SDS011;8926;49.720;6.576;2023-07-09T04:00:32;2.93;;;2.73;;
17614;SDS011;8926;49.720;6.576;2023-07-09T04:02:58;3.10;;;2.90;;
17614;SDS011;8926;49.720;6.576;2023-07-09T04:05:24;3.00;;;2.80;;
17614;SDS011;8926;49.720;6.576;2023-07-09T04:07:51;2.93;;;2.83;;
17614;SDS011;8926;49.720;6.576;2023-07-09T04:10:16;3.53;;;3.33;;
17614;SDS011;8926;49.720;6.576;2023-07-09T04:12:43;3.50;;;3.30;;
17614;SDS011;8926;49.720;6.576;2023-07-09T04:15:09;3.57;;;3.27;;
17614;SDS011;8926;49.720;6.576;2023-07-09T04:17:37;3.33;;;3.13;;
17614;SDS011;8926;49.720;6.576;2023-07-09T04:20:04;3.60;;;3.30;;
17614;SDS011;8926;49.720;6.576;2023-07-09T04:22:33;3.00;;;2.80;;
17614;SDS011;8926;49.720;6.576;2023-07-09T04:24:59;2.93;;;2.73;;
17614;SDS011;8926;49.720;6.576;2023-07-09T04:27:24;2.73;;;2.53;;
17614;SDS011;8926;49.720;6.576;2023-07-09T04:29:53;2.93;;;2.73;;
17614;SDS011;8926;49.720;6.576;2023-07-09T04:32:19;3.30;;;3.10;;
17614;SDS011;8926;49.720;6.576;2023-07-09T04:34:45;2.77;;;2.57;;
17614;SDS011;8926;49.720;6.576;2023-07-09T04:37:10;2.60;;;2.40;;
17614;SDS011;8926;49.720;6.576;2023-07-09T04:39:37;2.70;;;2.50;;
17614;SDS011;8926;49.720;6.576;2023-07-09T04:42:03;2.20;;;2.10;;
17614;SDS011;8926;49.720;6.576;2023-07-09T04:44:29;2.17;;;2.03;;
17614;SDS011;8926;49.720;6.576;2023-07-09T04:46:54;2.13;;;2.03;;
17614;SDS011;8926;49.720;6.576;2023-07-09T04:49:19;2.50;;;2.40;;
17614;SDS011;8926;49.720;6.576;2023-07-09T04:51:45;2.30;;;2.20;;
17614;SDS011;8926;49.720;6.576;2023-07-09T04:54:10;2.40;;;2.30;;
17614;SDS011;8926;49.720;6.576;2023-07-09T04:56:35;3.00;;;2.80;;
17614;SDS011;8926;49.720;6.576;2023-07-09T04:59:02;3.03;;;2.83;;
17614;SDS011;8926;49.720;6.576;2023-07-09T05:01:28;2.90;;;2.70;;
17614;SDS011;8926;49.720;6.576;2023-07-09T05:03:54;3.00;;;2.80;;
17614;SDS011;8926;49.720;6.576;2023-07-09T05:06:19;2.90;;;2.63;;
17614;SDS011;8926;49.720;6.576;2023-07-09T05:08:45;3.30;;;3.10;;
17614;SDS011;8926;49.720;6.576;2023-07-09T05:11:13;2.67;;;2.57;;
17614;SDS011;8926;49.720;6.576;2023-07-09T05:13:38;2.37;;;2.27;;
17614;SDS011;8926;49.720;6.576;2023-07-09T05:16:04;2.43;;;2.33;;
17614;SDS011;8926;49.720;6.576;2023-07-09T05:18:29;2.63;;;2.53;;
17614;SDS011;8926;49.720;6.576;2023-07-09T05:20:54;3.10;;;2.90;;
17614;SDS011;8926;49.720;6.576;2023-07-09T05:23:20;2.73;;;2.53;;
17614;SDS011;8926;49.720;6.576;2023-07-09T05:25:46;2.80;;;2.60;;
17614;SDS011;8926;49.720;6.576;2023-07-09T05:28:11;2.80;;;2.60;;
17614;SDS011;8926;49.720;6.576;2023-07-09T05:30:40;3.43;;;2.93;;
17614;SDS011;8926;49.720;6.576;2023-07-09T05:33:06;2.83;;;2.63;;
17614;SDS011;8926;49.720;6.576;2023-07-09T05:35:31;2.83;;;2.67;;
17614;SDS011;8926;49.720;6.576;2023-07-09T05:37:57;2.50;;;2.30;;
17614;SDS011;8926;49.720;6.576;2023-07-09T05:40:22;3.17;;;2.97;;
17614;SDS011;8926;49.720;6.576;2023-07-09T05:42:48;3.10;;;2.90;;
17614;SDS011;8926;49.720;6.576;2023-07-09T05:45:14;2.93;;;2.73;;
17614;SDS011;8926;49.720;6.576;2023-07-09T05:47:40;2.77;;;2.60;;
17614;SDS011;8926;49.720;6.576;2023-07-09T05:50:05;3.40;;;3.20;;
17614;SDS011;8926;49.720;6.576;2023-07-09T05:52:31;3.17;;;2.97;;
17614;SDS011;8926;49.720;6.576;2023-07-09T05:54:56;3.07;;;2.87;;
17614;SDS011;8926;49.720;6.576;2023-07-09T05:57:22;3.70;;;3.50;;
17614;SDS011;8926;49.720;6.576;2023-07-09T05:59:47;3.60;;;3.40;;
17614;SDS011;8926;49.720;6.576;2023-07-09T06:02:14;3.93;;;3.73;;
17614;SDS011;8926;49.720;6.576;2023-07-09T06:04:43;3.60;;;3.40;;
17614;SDS011;8926;49.720;6.576;2023-07-09T06:07:10;3.50;;;3.30;;
17614;SDS011;8926;49.720;6.576;2023-07-09T06:09:36;3.70;;;3.33;;
17614;SDS011;8926;49.720;6.576;2023-07-09T06:12:02;4.47;;;4.17;;
17614;SDS011;8926;49.720;6.576;2023-07-09T06:14:28;4.07;;;3.77;;
17614;SDS011;8926;49.720;6.576;2023-07-09T06:16:54;3.60;;;3.40;;
17614;SDS011;8926;49.720;6.576;2023-07-09T06:19:19;3.43;;;3.23;;
17614;SDS011;8926;49.720;6.576;2023-07-09T06:21:44;3.57;;;3.37;;
17614;SDS011;8926;49.720;6.576;2023-07-09T06:24:10;3.07;;;2.87;;
17614;SDS011;8926;49.720;6.576;2023-07-09T06:26:35;2.90;;;2.80;;
17614;SDS011;8926;49.720;6.576;2023-07-09T06:29:00;3.20;;;3.00;;
17614;SDS011;8926;49.720;6.576;2023-07-09T06:31:27;3.23;;;3.00;;
17614;SDS011;8926;49.720;6.576;2023-07-09T06:33:52;2.97;;;2.87;;
17614;SDS011;8926;49.720;6.576;2023-07-09T06:36:18;4.23;;;3.93;;
17614;SDS011;8926;49.720;6.576;2023-07-09T06:38:44;3.77;;;3.50;;
17614;SDS011;8926;49.720;6.576;2023-07-09T06:41:10;3.77;;;3.57;;
17614;SDS011;8926;49.720;6.576;2023-07-09T06:43:36;3.60;;;3.30;;
17614;SDS011;8926;49.720;6.576;2023-07-09T06:46:05;2.90;;;2.70;;
17614;SDS011;8926;49.720;6.576;2023-07-09T06:48:31;3.20;;;3.00;;
17614;SDS011;8926;49.720;6.576;2023-07-09T06:50:58;3.17;;;2.97;;
17614;SDS011;8926;49.720;6.576;2023-07-09T06:53:24;3.10;;;2.90;;
17614;SDS011;8926;49.720;6.576;2023-07-09T06:55:50;3.30;;;3.10;;
17614;SDS011;8926;49.720;6.576;2023-07-09T06:58:17;3.80;;;3.50;;
17614;SDS011;8926;49.720;6.576;2023-07-09T07:00:43;5.10;;;4.73;;
17614;SDS011;8926;49.720;6.576;2023-07-09T07:03:08;4.07;;;3.80;;
17614;SDS011;8926;49.720;6.576;2023-07-09T07:05:34;3.90;;;3.60;;
17614;SDS011;8926;49.720;6.576;2023-07-09T07:08:00;3.20;;;3.00;;
17614;SDS011;8926;49.720;6.576;2023-07-09T07:10:27;3.30;;;3.10;;
17614;SDS011;8926;49.720;6.576;2023-07-09T07:12:52;4.00;;;3.70;;
17614;SDS011;8926;49.720;6.576;2023-07-09T07:15:18;3.90;;;3.70;;
17614;SDS011;8926;49.720;6.576;2023-07-09T07:17:44;2.97;;;2.77;;
17614;SDS011;8926;49.720;6.576;2023-07-09T07:20:11;3.60;;;3.33;;
17614;SDS011;8926;49.720;6.576;2023-07-09T07:22:38;3.00;;;2.80;;
17614;SDS011;8926;49.720;6.576;2023-07-09T07:25:06;3.70;;;3.40;;
17614;SDS011;8926;49.720;6.576;2023-07-09T07:27:33;2.83;;;2.73;;
17614;SDS011;8926;49.720;6.576;2023-07-09T07:29:59;3.50;;;3.30;;
17614;SDS011;8926;49.720;6.576;2023-07-09T07:32:26;3.30;;;3.10;;
17614;SDS011;8926;49.720;6.576;2023-07-09T07:34:51;2.70;;;2.50;;
17614;SDS011;8926;49.720;6.576;2023-07-09T07:37:19;3.10;;;2.90;;
17614;SDS011;8926;49.720;6.576;2023-07-09T07:39:45;3.10;;;2.90;;
17614;SDS011;8926;49.720;6.576;2023-07-09T07:42:11;4.33;;;4.03;;
17614;SDS011;8926;49.720;6.576;2023-07-09T07:44:36;3.30;;;3.10;;
17614;SDS011;8926;49.720;6.576;2023-07-09T07:47:02;3.40;;;3.20;;
17614;SDS011;8926;49.720;6.576;2023-07-09T07:49:28;2.50;;;2.40;;
17614;SDS011;8926;49.720;6.576;2023-07-09T07:51:53;3.30;;;3.10;;
17614;SDS011;8926;49.720;6.576;2023-07-09T07:54:18;3.87;;;3.57;;
17614;SDS011;8926;49.720;6.576;2023-07-09T07:56:44;3.10;;;2.80;;
17614;SDS011;8926;49.720;6.576;2023-07-09T07:59:09;3.00;;;2.87;;
17614;SDS011;8926;49.720;6.576;2023-07-09T08:01:34;3.37;;;3.17;;
17614;SDS011;8926;49.720;6.576;2023-07-09T08:04:01;4.37;;;4.07;;
17614;SDS011;8926;49.720;6.576;2023-07-09T08:06:27;3.43;;;3.23;;
17614;SDS011;8926;49.720;6.576;2023-07-09T08:08:53;3.50;;;3.20;;
17614;SDS011;8926;49.720;6.576;2023-07-09T08:11:18;3.10;;;2.90;;
17614;SDS011;8926;49.720;6.576;2023-07-09T08:13:44;3.27;;;3.07;;
17614;SDS011;8926;49.720;6.576;2023-07-09T08:16:09;3.40;;;3.20;;
17614;SDS011;8926;49.720;6.576;2023-07-09T08:18:36;2.97;;;2.77;;
17614;SDS011;8926;49.720;6.576;2023-07-09T08:21:03;2.83;;;2.63;;
17614;SDS011;8926;49.720;6.576;2023-07-09T08:23:29;2.80;;;2.60;;
17614;SDS011;8926;49.720;6.576;2023-07-09T08:25:55;3.00;;;2.83;;
17614;SDS011;8926;49.720;6.576;2023-07-09T08:28:21;3.50;;;3.20;;
17614;SDS011;8926;49.720;6.576;2023-07-09T08:30:46;2.90;;;2.70;;
17614;SDS011;8926;49.720;6.576;2023-07-09T08:33:12;2.90;;;2.70;;
17614;SDS011;8926;49.720;6.576;2023-07-09T08:35:37;3.83;;;3.40;;
17614;SDS011;8926;49.720;6.576;2023-07-09T08:38:02;4.17;;;3.87;;
17614;SDS011;8926;49.720;6.576;2023-07-09T08:40:28;3.40;;;3.20;;
17614;SDS011;8926;49.720;6.576;2023-07-09T08:42:54;3.30;;;3.10;;
17614;SDS011;8926;49.720;6.576;2023-07-09T08:48:06;3.90;;;3.60;;
17614;SDS011;8926;49.720;6.576;2023-07-09T08:50:42;3.97;;;3.67;;
17614;SDS011;8926;49.720;6.576;2023-07-09T08:53:15;3.63;;;3.33;;
17614;SDS011;8926;49.720;6.576;2023-07-09T08:55:46;3.30;;;3.10;;
17614;SDS011;8926;49.720;6.576;2023-07-09T08:58:28;3.90;;;3.60;;
17614;SDS011;8926;49.720;6.576;2023-07-09T09:00:56;2.63;;;2.53;;
17614;SDS011;8926;49.720;6.576;2023-07-09T09:05:54;3.17;;;2.97;;
17614;SDS011;8926;49.720;6.576;2023-07-09T09:08:32;2.93;;;2.83;;
17614;SDS011;8926;49.720;6.576;2023-07-09T09:11:10;3.17;;;2.97;;
17614;SDS011;8926;49.720;6.576;2023-07-09T09:13:40;3.30;;;3.10;;
17614;SDS011;8926;49.720;6.576;2023-07-09T09:16:14;3.60;;;3.40;;
17614;SDS011;8926;49.720;6.576;2023-07-09T09:19:02;3.67;;;3.43;;
17614;SDS011;8926;49.720;6.576;2023-07-09T09:21:35;2.73;;;2.57;;
17614;SDS011;8926;49.720;6.576;2023-07-09T09:24:26;3.00;;;2.80;;
17614;SDS011;8926;49.720;6.576;2023-07-09T09:27:07;3.60;;;3.00;;
17614;SDS011;8926;49.720;6.576;2023-07-09T09:29:33;3.30;;;3.10;;
17614;SDS011;8926;49.720;6.576;2023-07-09T09:31:58;3.70;;;3.50;;
17614;SDS011;8926;49.720;6.576;2023-07-09T09:34:35;4.00;;;3.70;;
17614;SDS011;8926;49.720;6.576;2023-07-09T09:37:01;2.67;;;2.57;;
17614;SDS011;8926;49.720;6.576;2023-07-09T09:39:26;3.27;;;3.03;;
17614;SDS011;8926;49.720;6.576;2023-07-09T09:41:53;4.23;;;3.83;;
17614;SDS011;8926;49.720;6.576;2023-07-09T09:44:21;4.30;;;3.27;;
17614;SDS011;8926;49.720;6.576;2023-07-09T09:46:50;3.43;;;3.00;;
17614;SDS011;8926;49.720;6.576;2023-07-09T09:49:15;2.90;;;2.70;;
17614;SDS011;8926;49.720;6.576;2023-07-09T09:51:42;3.87;;;3.57;;
17614;SDS011;8926;49.720;6.576;2023-07-09T09:54:13;3.60;;;3.37;;
17614;SDS011;8926;49.720;6.576;2023-07-09T09:56:47;5.20;;;3.00;;
17614;SDS011;8926;49.720;6.576;2023-07-09T09:59:24;2.83;;;2.60;;
17614;SDS011;8926;49.720;6.576;2023-07-09T10:01:56;2.97;;;2.77;;
17614;SDS011;8926;49.720;6.576;2023-07-09T10:04:23;3.20;;;3.00;;
17614;SDS011;8926;49.720;6.576;2023-07-09T10:06:50;3.30;;;2.97;;
17614;SDS011;8926;49.720;6.576;2023-07-09T10:14:48;3.50;;;3.30;;
17614;SDS011;8926;49.720;6.576;2023-07-09T10:22:36;3.17;;;2.83;;
17614;SDS011;8926;49.720;6.576;2023-07-09T10:25:16;3.57;;;3.30;;
17614;SDS011;8926;49.720;6.576;2023-07-09T10:30:46;2.90;;;2.70;;
17614;SDS011;8926;49.720;6.576;2023-07-09T10:41:12;3.53;;;3.10;;
17614;SDS011;8926;49.720;6.576;2023-07-09T10:46:27;2.97;;;2.73;;
17614;SDS011;8926;49.720;6.576;2023-07-09T10:48:56;3.60;;;3.03;;
17614;SDS011;8926;49.720;6.576;2023-07-09T10:54:09;3.50;;;3.20;;
17614;SDS011;8926;49.720;6.576;2023-07-09T10:56:37;3.20;;;2.90;;
17614;SDS011;8926;49.720;6.576;2023-07-09T11:01:47;3.20;;;3.00;;
17614;SDS011;8926;49.720;6.576;2023-07-09T11:04:26;3.00;;;2.80;;
17614;SDS011;8926;49.720;6.576;2023-07-09T11:06:58;3.70;;;3.40;;
17614;SDS011;8926;49.720;6.576;2023-07-09T11:09:26;2.67;;;2.50;;
17614;SDS011;8926;49.720;6.576;2023-07-09T11:11:58;3.67;;;3.37;;
17614;SDS011;8926;49.720;6.576;2023-07-09T11:14:31;4.37;;;3.90;;
17614;SDS011;8926;49.720;6.576;2023-07-09T11:17:03;3.63;;;3.33;;
17614;SDS011;8926;49.720;6.576;2023-07-09T11:19:30;3.80;;;3.43;;
17614;SDS011;8926;49.720;6.576;2023-07-09T11:24:49;3.23;;;2.93;;
17614;SDS011;8926;49.720;6.576;2023-07-09T11:27:24;4.30;;;3.90;;
17614;SDS011;8926;49.720;6.576;2023-07-09T11:29:59;4.37;;;3.50;;
17614;SDS011;8926;49.720;6.576;2023-07-09T11:32:27;3.70;;;3.30;;
17614;SDS011;8926;49.720;6.576;2023-07-09T11:34:53;3.80;;;3.50;;
17614;SDS011;8926;49.720;6.576;2023-07-09T11:37:20;2.50;;;2.30;;
17614;SDS011;8926;49.720;6.576;2023-07-09T11:39:50;3.97;;;3.50;;
17614;SDS011;8926;49.720;6.576;2023-07-09T11:45:16;4.00;;;3.70;;
17614;SDS011;8926;49.720;6.576;2023-07-09T11:47:43;3.40;;;3.07;;
17614;SDS011;8926;49.720;6.576;2023-07-09T11:50:21;3.90;;;2.90;;
17614;SDS011;8926;49.720;6.576;2023-07-09T11:55:41;3.30;;;3.00;;
17614;SDS011;8926;49.720;6.576;2023-07-09T11:58:12;2.90;;;2.70;;
17614;SDS011;8926;49.720;6.576;2023-07-09T12:00:39;3.10;;;2.90;;
17614;SDS011;8926;49.720;6.576;2023-07-09T12:03:09;2.73;;;2.53;;
17614;SDS011;8926;49.720;6.576;2023-07-09T12:05:39;3.00;;;2.70;;
17614;SDS011;8926;49.720;6.576;2023-07-09T12:08:11;2.90;;;2.70;;
17614;SDS011;8926;49.720;6.576;2023-07-09T12:10:41;4.97;;;3.17;;
17614;SDS011;8926;49.720;6.576;2023-07-09T12:13:08;4.07;;;3.63;;
17614;SDS011;8926;49.720;6.576;2023-07-09T12:15:36;2.97;;;2.77;;
17614;SDS011;8926;49.720;6.576;2023-07-09T12:18:09;2.77;;;2.57;;
17614;SDS011;8926;49.720;6.576;2023-07-09T12:20:36;3.20;;;3.00;;
17614;SDS011;8926;49.720;6.576;2023-07-09T12:25:50;2.20;;;2.10;;
17614;SDS011;8926;49.720;6.576;2023-07-09T12:28:17;3.43;;;3.23;;
17614;SDS011;8926;49.720;6.576;2023-07-09T12:30:46;4.43;;;3.93;;
17614;SDS011;8926;49.720;6.576;2023-07-09T12:33:15;5.97;;;4.13;;
17614;SDS011;8926;49.720;6.576;2023-07-09T12:35:42;4.20;;;3.40;;
17614;SDS011;8926;49.720;6.576;2023-07-09T12:38:27;4.10;;;3.70;;
17614;SDS011;8926;49.720;6.576;2023-07-09T12:40:55;3.03;;;2.73;;
17614;SDS011;8926;49.720;6.576;2023-07-09T12:43:30;3.57;;;3.00;;
17614;SDS011;8926;49.720;6.576;2023-07-09T12:45:58;3.80;;;3.50;;
17614;SDS011;8926;49.720;6.576;2023-07-09T12:48:25;4.07;;;3.40;;
17614;SDS011;8926;49.720;6.576;2023-07-09T12:50:57;3.87;;;3.57;;
17614;SDS011;8926;49.720;6.576;2023-07-09T12:53:25;2.90;;;2.70;;
17614;SDS011;8926;49.720;6.576;2023-07-09T12:55:54;3.97;;;3.67;;
17614;SDS011;8926;49.720;6.576;2023-07-09T12:58:22;2.80;;;2.60;;
17614;SDS011;8926;49.720;6.576;2023-07-09T13:00:49;2.83;;;2.63;;
17614;SDS011;8926;49.720;6.576;2023-07-09T13:03:18;2.57;;;2.37;;
17614;SDS011;8926;49.720;6.576;2023-07-09T13:05:54;3.40;;;3.10;;
17614;SDS011;8926;49.720;6.576;2023-07-09T13:08:24;2.70;;;2.40;;
17614;SDS011;8926;49.720;6.576;2023-07-09T13:10:51;2.70;;;2.50;;
17614;SDS011;8926;49.720;6.576;2023-07-09T13:13:18;3.10;;;2.80;;
17614;SDS011;8926;49.720;6.576;2023-07-09T13:15:48;3.17;;;2.87;;
17614;SDS011;8926;49.720;6.576;2023-07-09T13:18:16;3.27;;;2.97;;
17614;SDS011;8926;49.720;6.576;2023-07-09T13:20:42;2.87;;;2.67;;
17614;SDS011;8926;49.720;6.576;2023-07-09T13:23:10;3.40;;;3.13;;
17614;SDS011;8926;49.720;6.576;2023-07-09T13:25:39;3.00;;;2.80;;
17614;SDS011;8926;49.720;6.576;2023-07-09T13:28:16;2.50;;;2.40;;
17614;SDS011;8926;49.720;6.576;2023-07-09T13:30:47;3.70;;;3.30;;
17614;SDS011;8926;49.720;6.576;2023-07-09T13:33:13;2.67;;;2.53;;
17614;SDS011;8926;49.720;6.576;2023-07-09T13:35:40;4.00;;;3.67;;
17614;SDS011;8926;49.720;6.576;2023-07-09T13:38:11;4.73;;;3.87;;
17614;SDS011;8926;49.720;6.576;2023-07-09T13:40:38;6.77;;;4.13;;
17614;SDS011;8926;49.720;6.576;2023-07-09T13:43:07;10.93;;;5.00;;
17614;SDS011;8926;49.720;6.576;2023-07-09T13:45:37;4.13;;;3.40;;
17614;SDS011;8926;49.720;6.576;2023-07-09T13:48:02;8.87;;;3.63;;
17614;SDS011;8926;49.720;6.576;2023-07-09T13:50:29;2.70;;;2.50;;
17614;SDS011;8926;49.720;6.576;2023-07-09T13:52:55;2.90;;;2.50;;
17614;SDS011;8926;49.720;6.576;2023-07-09T13:55:21;3.27;;;2.93;;
17614;SDS011;8926;49.720;6.576;2023-07-09T13:57:48;2.63;;;2.43;;
17614;SDS011;8926;49.720;6.576;2023-07-09T14:00:15;2.33;;;2.10;;
17614;SDS011;8926;49.720;6.576;2023-07-09T14:02:41;3.23;;;2.40;;
17614;SDS011;8926;49.720;6.576;2023-07-09T14:05:08;3.73;;;2.57;;
17614;SDS011;8926;49.720;6.576;2023-07-09T14:07:37;3.07;;;2.13;;
17614;SDS011;8926;49.720;6.576;2023-07-09T14:10:05;7.17;;;2.77;;
17614;SDS011;8926;49.720;6.576;2023-07-09T14:12:32;2.93;;;2.57;;
17614;SDS011;8926;49.720;6.576;2023-07-09T14:15:12;3.47;;;3.17;;
17614;SDS011;8926;49.720;6.576;2023-07-09T14:17:43;2.77;;;2.57;;
17614;SDS011;8926;49.720;6.576;2023-07-09T14:20:13;2.43;;;2.23;;
17614;SDS011;8926;49.720;6.576;2023-07-09T14:22:40;2.80;;;2.20;;
17614;SDS011;8926;49.720;6.576;2023-07-09T14:25:09;2.50;;;2.30;;
17614;SDS011;8926;49.720;6.576;2023-07-09T14:27:40;2.70;;;2.50;;
17614;SDS011;8926;49.720;6.576;2023-07-09T14:30:06;2.70;;;2.50;;
17614;SDS011;8926;49.720;6.576;2023-07-09T14:32:38;2.90;;;2.70;;
17614;SDS011;8926;49.720;6.576;2023-07-09T14:37:58;3.13;;;2.90;;
17614;SDS011;8926;49.720;6.576;2023-07-09T14:40:25;2.80;;;2.60;;
17614;SDS011;8926;49.720;6.576;2023-07-09T14:42:50;2.80;;;2.60;;
17614;SDS011;8926;49.720;6.576;2023-07-09T14:47:47;2.70;;;2.50;;
17614;SDS011;8926;49.720;6.576;2023-07-09T14:50:12;2.97;;;2.77;;
17614;SDS011;8926;49.720;6.576;2023-07-09T14:52:38;2.93;;;2.73;;
17614;SDS011;8926;49.720;6.576;2023-07-09T14:55:05;2.10;;;2.00;;
17614;SDS011;8926;49.720;6.576;2023-07-09T14:57:38;2.50;;;2.30;;
17614;SDS011;8926;49.720;6.576;2023-07-09T15:00:03;1.87;;;1.77;;
17614;SDS011;8926;49.720;6.576;2023-07-09T15:02:36;2.13;;;2.00;;
17614;SDS011;8926;49.720;6.576;2023-07-09T15:05:09;2.60;;;2.40;;
17614;SDS011;8926;49.720;6.576;2023-07-09T15:07:38;2.40;;;2.20;;
17614;SDS011;8926;49.720;6.576;2023-07-09T15:10:03;2.27;;;2.10;;
17614;SDS011;8926;49.720;6.576;2023-07-09T15:12:33;2.00;;;1.90;;
17614;SDS011;8926;49.720;6.576;2023-07-09T15:15:46;2.20;;;2.10;;
17614;SDS011;8926;49.720;6.576;2023-07-09T15:17:50;2.13;;;2.03;;
17614;SDS011;8926;49.720;6.576;2023-07-09T15:20:16;2.00;;;1.90;;
17614;SDS011;8926;49.720;6.576;2023-07-09T15:22:43;1.90;;;1.80;;
17614;SDS011;8926;49.720;6.576;2023-07-09T15:25:12;4.90;;;4.40;;
17614;SDS011;8926;49.720;6.576;2023-07-09T15:27:40;6.53;;;5.90;;
17614;SDS011;8926;49.720;6.576;2023-07-09T15:30:12;4.97;;;4.43;;
17614;SDS011;8926;49.720;6.576;2023-07-09T15:32:37;5.33;;;4.83;;
17614;SDS011;8926;49.720;6.576;2023-07-09T15:35:02;5.13;;;4.63;;
17614;SDS011;8926;49.720;6.576;2023-07-09T15:37:28;4.50;;;4.20;;
17614;SDS011;8926;49.720;6.576;2023-07-09T15:39:53;4.30;;;4.00;;
17614;SDS011;8926;49.720;6.576;2023-07-09T15:42:18;4.83;;;4.37;;
17614;SDS011;8926;49.720;6.576;2023-07-09T15:44:44;9.00;;;8.30;;
17614;SDS011;8926;49.720;6.576;2023-07-09T15:47:15;8.13;;;7.37;;
17614;SDS011;8926;49.720;6.576;2023-07-09T15:49:43;6.20;;;5.70;;
17614;SDS011;8926;49.720;6.576;2023-07-09T15:52:09;6.83;;;6.23;;
17614;SDS011;8926;49.720;6.576;2023-07-09T15:54:35;6.37;;;5.77;;
17614;SDS011;8926;49.720;6.576;2023-07-09T15:57:00;8.10;;;7.40;;
17614;SDS011;8926;49.720;6.576;2023-07-09T16:01:56;6.63;;;6.10;;